Morel, MT

12:42 PM MST on December 04, 2016 (GMT -0700)
| | Change Station
Active Advisory: Winter Weather Advisory

Elev -9999 ft 0.00 °N, 0.00 °E | Updated

Snow
Snow
35 °F
Feels Like 28 °F
N
10
Wind Variable Wind from West
Gusts 18 mph

Today
High -- | Low -- °F
--% Chance of Precip.
Yesterday
High -- | Low -- °F
Precip. -- in
Pressure 29.73 in
Visibility 10.0 miles
Clouds Few 8000 ft
Scattered Clouds 9500 ft
Windchill 28 °F
Dew Point 24 °F
Humidity 62%
Rainfall --
Snow Depth Not available.
7:57 AM 4:45 PM
Waxing Crescent, 25% visible
METAR KBTM 041853Z AUTO 23004KT 10SM FEW080 SCT095 01/M06 A2966 RMK AO2 SLP066 T00061061
Pressure 29.73 in
Visibility 10.0 miles
Clouds Few 8000 ft
Scattered Clouds 9500 ft
Windchill 28 °F
Dew Point 24 °F
Humidity 62%
Rainfall --
Snow Depth Not available.
7:57 AM 4:45 PM
Waxing Crescent, 25% visible
METAR KBTM 041853Z AUTO 23004KT 10SM FEW080 SCT095 01/M06 A2966 RMK AO2 SLP066 T00061061

10-Day Weather Forecast

Almanac

Astronomy

Dec. 04, 2016 Rise Set
Actual Time
Civil Twilight
Nautical Twilight
Astronomical Twilight
Moon
Length of Visible Light
Length of Day
Tomorrow will be .
, % of the Moon is Illuminated

Today's Extremes

State Highs State Lows

Community

WunderPhotos

Upload Photos

1,955,652 photos uploaded!

WunderBlog® & News

Nearby

Air Quality

  Air Quality AQ Index Pollutant
Not available.

Snow Depth

Station Depth Elevation

Earthquake Activity

City Distance Mag. Time & Date
Minimum magnitude displayed is 2.5.

Coastal Water Temperatures

Place Temperature

Stations

Nearby Weather Stations

Station Location Temp. Windchill Dew Point Humidity Wind Precip. Elev Updated Type
                   

Watches & Warnings

Winter Weather Advisory
Issued: 10:12 AM MST Dec. 4, 2016 – National Weather Service

... Winter Weather Advisory in effect until 11 am MST Monday...

The National Weather Service in Missoula has issued a Winter
Weather Advisory for snow and blowing snow... which is in effect
until 11 am MST Monday. The Winter Storm Watch is no longer in
effect.

* Impacts/timing: light snow will continue this morning and
afternoon. However the snow intensities are expected to increase
this evening with the frontal passage. Interstate 90 from
Bearmouth to Homestake pass, as well as Highway 12 from Garrison
to MacDonald Pass will see the worst of the conditions. The
worst of the conditions are expected to be between 5pm and 9pm
this evening.

* Snow accumulations Sunday through Monday morning: 2 to 6
inches.

* Winds: gusty west northwest winds 0f 20 to 30 miles per hour
with the cold front this evening.